Time;durP1;ratioP1;P1;durP2;ratioP2;P2;SDS_P1;SDS_P2;PMS_P1;PMS_P2;Temp;Humidity;BMP_temperature;BMP_pressure;BME280_temperature;BME280_humidity;BME280_pressure;Samples;Min_cycle;Max_cycle;Signal;HPM_P1;HPM_P2
2023/10/03 00:00:24;;;;;;;;;;;;;;;6.45;100.00;99648.91;5055204;28;20316;-83
2023/10/03 07:17:50;;;;;;;;;;;;;;;5.84;100.00;99589.16;4964778;28;19973;-83
2023/10/03 07:20:15;;;;;;;;;;;;;;;5.81;100.00;99584.81;4972094;28;20478;-83
2023/10/03 07:22:41;;;;;;;;;;;;;;;5.74;100.00;99580.63;4972045;28;19925;-83
2023/10/03 07:25:08;;;;;;;;;;;;;;;5.84;100.00;99591.78;4972043;28;19957;-83
2023/10/03 07:27:34;;;;;;;;;;;;;;;5.74;100.00;99590.28;4972161;28;20308;-83
2023/10/03 07:30:02;;;;;;;;;;;;;;;5.76;100.00;99588.47;4972061;28;19928;-83
2023/10/03 07:32:30;;;;;;;;;;;;;;;5.73;100.00;99593.84;4972782;28;19968;-83
2023/10/03 07:34:57;;;;;;;;;;;;;;;5.70;100.00;99589.50;4972482;28;20001;-83
2023/10/03 07:37:22;;;;;;;;;;;;;;;5.68;100.00;99590.44;4973214;28;19914;-83
2023/10/03 07:39:47;;;;;;;;;;;;;;;5.78;100.00;99597.19;4973122;28;19922;-82
2023/10/03 07:42:14;;;;;;;;;;;;;;;5.85;100.00;99606.63;4973157;28;19925;-83
2023/10/03 07:44:39;;;;;;;;;;;;;;;5.74;100.00;99616.56;4973105;28;20362;-83
2023/10/03 07:47:05;;;;;;;;;;;;;;;5.76;100.00;99620.91;4971854;28;19929;-83
2023/10/03 07:49:31;;;;;;;;;;;;;;;5.76;100.00;99620.00;4973355;28;19922;-82
2023/10/03 07:51:59;;;;;;;;;;;;;;;5.67;100.00;99613.25;4972227;28;20373;-82
2023/10/03 07:54:26;;;;;;;;;;;;;;;5.63;100.00;99620.34;4973123;28;20396;-85
2023/10/03 07:56:51;;;;;;;;;;;;;;;5.61;100.00;99627.38;4973023;28;19922;-82
2023/10/03 07:59:17;;;;;;;;;;;;;;;5.62;100.00;99629.13;4972999;28;19925;-82
2023/10/03 08:01:42;;;;;;;;;;;;;;;5.72;100.00;99621.00;4971706;28;19922;-83
2023/10/03 08:04:12;;;;;;;;;;;;;;;5.70;100.00;99625.47;4972882;28;20472;-83
2023/10/03 08:06:38;;;;;;;;;;;;;;;5.56;100.00;99624.03;4972283;28;19918;-83
2023/10/03 08:09:03;;;;;;;;;;;;;;;5.54;100.00;99631.09;4972810;28;20037;-83
2023/10/03 08:11:29;;;;;;;;;;;;;;;5.69;100.00;99629.81;4969525;28;19925;-84
2023/10/03 08:13:55;;;;;;;;;;;;;;;5.75;100.00;99644.59;4951359;28;19926;-84
2023/10/03 08:16:22;;;;;;;;;;;;;;;5.81;100.00;99644.44;4971349;28;19929;-82
2023/10/03 08:18:47;;;;;;;;;;;;;;;5.80;100.00;99642.72;4971264;28;19929;-84
2023/10/03 08:21:13;;;;;;;;;;;;;;;5.79;100.00;99635.72;4974548;28;20571;-82
2023/10/03 08:23:38;;;;;;;;;;;;;;;5.82;100.00;99652.28;4976002;28;19929;-83
2023/10/03 08:26:03;;;;;;;;;;;;;;;5.87;100.00;99644.28;4975052;28;20080;-87
2023/10/03 08:28:29;;;;;;;;;;;;;;;5.89;100.00;99642.47;4973264;28;19929;-83
2023/10/03 08:30:55;;;;;;;;;;;;;;;5.91;100.00;99639.81;4973892;28;20024;-83
2023/10/03 08:33:22;;;;;;;;;;;;;;;5.94;100.00;99634.47;4976284;28;20393;-85
2023/10/03 08:35:48;;;;;;;;;;;;;;;5.91;100.00;99640.66;4976254;28;19973;-83
2023/10/03 08:38:14;;;;;;;;;;;;;;;5.94;100.00;99645.00;4976046;28;19926;-84
2023/10/03 08:40:45;;;;;;;;;;;;;;;6.03;100.00;99650.06;4974720;28;19918;-83
2023/10/03 08:43:11;;;;;;;;;;;;;;;6.01;100.00;99657.09;4974761;28;20392;-83
2023/10/03 08:45:41;;;;;;;;;;;;;;;6.03;100.00;99664.94;4974416;28;19914;-84
2023/10/03 08:48:06;;;;;;;;;;;;;;;6.02;100.00;99660.59;4975962;28;19925;-83
2023/10/03 08:50:39;;;;;;;;;;;;;;;6.12;100.00;99664.72;4976108;28;19922;-83
2023/10/03 08:53:26;;;;;;;;;;;;;;;6.05;100.00;99669.28;4975546;28;20016;-83
2023/10/03 08:55:52;;;;;;;;;;;;;;;6.06;100.00;99670.97;4975202;28;19918;-83
2023/10/03 08:58:25;;;;;;;;;;;;;;;6.01;100.00;99678.13;4975572;28;19918;-83
2023/10/03 09:00:50;;;;;;;;;;;;;;;6.07;100.00;99677.13;4973109;28;19918;-83
2023/10/03 09:03:17;;;;;;;;;;;;;;;6.06;100.00;99675.38;4974363;28;19922;-83
2023/10/03 09:05:43;;;;;;;;;;;;;;;6.15;100.00;99673.38;4975103;28;19941;-83
2023/10/03 09:08:09;;;;;;;;;;;;;;;6.12;100.00;99664.72;4975584;28;19926;-83
2023/10/03 09:10:42;;;;;;;;;;;;;;;6.09;100.00;99672.69;4975695;28;19922;-83
2023/10/03 09:13:14;;;;;;;;;;;;;;;6.02;100.00;99660.59;4975445;28;19922;-83
2023/10/03 09:15:42;;;;;;;;;;;;;;;5.89;100.00;99663.53;4974052;28;20008;-83
2023/10/03 12:43:37;;;;;;;;;;;;;;;6.51;100.00;99739.09;5314977;23;19925;-83
2023/10/03 12:46:03;;;;;;;;;;;;;;;6.43;100.00;99740.19;5044579;28;19924;-89
2023/10/03 12:48:29;;;;;;;;;;;;;;;6.52;100.00;99743.44;5036327;28;19974;-83
2023/10/03 12:50:55;;;;;;;;;;;;;;;6.57;100.00;99755.63;5034776;28;20334;-83
2023/10/03 12:53:21;;;;;;;;;;;;;;;6.68;100.00;99759.69;5034556;28;19928;-83
2023/10/03 12:55:46;;;;;;;;;;;;;;;6.48;100.00;99762.03;5044917;28;19920;-83
2023/10/03 12:58:18;;;;;;;;;;;;;;;6.67;100.00;99757.97;5043163;28;19939;-83
2023/10/03 13:00:43;;;;;;;;;;;;;;;6.63;100.00;99772.13;5054308;28;19927;-83
2023/10/03 13:03:08;;;;;;;;;;;;;;;6.61;100.00;99770.47;5036277;28;19917;-83
2023/10/03 13:05:35;;;;;;;;;;;;;;;6.62;100.00;99780.94;5035850;28;19963;-82
2023/10/03 13:08:00;;;;;;;;;;;;;;;6.64;100.00;99784.41;5054421;28;19923;-86
2023/10/03 13:10:26;;;;;;;;;;;;;;;6.73;100.00;99788.53;5036136;28;20291;-83
2023/10/03 13:12:54;;;;;;;;;;;;;;;6.73;100.00;99794.69;5053145;28;19968;-83
2023/10/03 13:15:20;;;;;;;;;;;;;;;6.73;100.00;99799.94;5053360;28;19916;-83
2023/10/03 13:17:46;;;;;;;;;;;;;;;6.91;100.00;99814.38;5054279;28;19924;-87
2023/10/03 13:20:11;;;;;;;;;;;;;;;6.95;100.00;99830.09;5035745;28;19928;-83
2023/10/03 13:22:42;;;;;;;;;;;;;;;6.88;100.00;99847.84;5035758;28;19921;-83
2023/10/03 13:25:11;;;;;;;;;;;;;;;6.69;100.00;99869.41;5035849;28;19924;-83
2023/10/03 13:27:37;;;;;;;;;;;;;;;6.69;100.00;99873.81;5052770;28;19921;-83
2023/10/03 13:30:02;;;;;;;;;;;;;;;6.70;100.00;99886.94;5054000;28;19929;-84
2023/10/03 13:32:28;;;;;;;;;;;;;;;6.73;100.00;99894.75;5035790;28;20263;-83
2023/10/03 13:34:53;;;;;;;;;;;;;;;6.95;100.00;99904.72;5053795;28;19971;-83
2023/10/03 13:37:20;;;;;;;;;;;;;;;6.85;100.00;99919.06;5053548;28;19920;-84
2023/10/03 13:39:45;;;;;;;;;;;;;;;6.77;100.00;99926.28;5035536;28;19917;-84
2023/10/03 13:42:11;;;;;;;;;;;;;;;6.88;100.00;99924.25;5052379;28;20429;-84
2023/10/03 13:44:37;;;;;;;;;;;;;;;6.81;100.00;99934.06;5053611;28;19929;-83
2023/10/03 13:47:03;;;;;;;;;;;;;;;6.88;100.00;99953.22;5053834;28;19962;-84
2023/10/03 13:49:28;;;;;;;;;;;;;;;6.75;100.00;99957.94;5053505;28;19978;-83
2023/10/03 13:51:53;;;;;;;;;;;;;;;6.88;100.00;99969.03;5053868;28;20096;-84
2023/10/03 13:54:18;;;;;;;;;;;;;;;6.89;100.00;99968.09;5053394;28;19947;-84
2023/10/03 13:56:44;;;;;;;;;;;;;;;6.72;100.00;99972.03;5052161;28;19921;-85
2023/10/03 13:59:12;;;;;;;;;;;;;;;6.86;100.00;99991.88;5053011;28;19970;-85
2023/10/03 14:01:37;;;;;;;;;;;;;;;6.86;100.00;100005.94;5035105;28;19924;-84
2023/10/03 14:04:05;;;;;;;;;;;;;;;6.81;100.00;100012.19;5034916;28;20276;-84
2023/10/03 14:06:30;;;;;;;;;;;;;;;6.82;100.00;100009.53;5052925;28;19917;-84
2023/10/03 14:08:56;;;;;;;;;;;;;;;6.82;100.00;100013.94;5053065;28;20136;-87
2023/10/03 14:11:22;;;;;;;;;;;;;;;6.79;100.00;100022.78;5053008;28;19975;-85
2023/10/03 14:13:51;;;;;;;;;;;;;;;6.84;100.00;100043.75;5051764;28;20288;-84
2023/10/03 14:16:17;;;;;;;;;;;;;;;6.95;100.00;100044.34;5052309;28;20394;-85
2023/10/03 14:18:43;;;;;;;;;;;;;;;6.96;100.00;100056.63;5052446;28;20330;-84
2023/10/03 14:21:10;;;;;;;;;;;;;;;7.01;100.00;100041.56;5052838;28;20003;-84
2023/10/03 14:23:38;;;;;;;;;;;;;;;6.82;100.00;100041.13;5034241;28;20276;-84
2023/10/03 14:26:04;;;;;;;;;;;;;;;6.87;100.00;100051.56;5052994;28;19923;-84
2023/10/03 14:28:30;;;;;;;;;;;;;;;6.84;100.00;100059.53;5051595;28;20391;-83
2023/10/03 14:30:55;;;;;;;;;;;;;;;6.91;100.00;100069.91;5053143;28;19917;-84
2023/10/03 14:33:21;;;;;;;;;;;;;;;6.87;100.00;100080.56;5034172;28;19917;-85
2023/10/03 14:35:46;;;;;;;;;;;;;;;6.90;100.00;100091.03;5052830;28;19917;-85
2023/10/03 14:38:12;;;;;;;;;;;;;;;6.84;100.00;100075.34;5052522;28;20003;-85
2023/10/03 14:40:38;;;;;;;;;;;;;;;6.76;100.00;100093.94;5052637;28;19920;-85
2023/10/03 14:43:03;;;;;;;;;;;;;;;6.85;100.00;100106.06;5051149;28;19923;-84
2023/10/03 14:45:29;;;;;;;;;;;;;;;6.81;100.00;100109.66;5052615;28;19925;-83
2023/10/03 14:47:56;;;;;;;;;;;;;;;6.98;100.00;100111.91;5052426;28;19917;-83
2023/10/03 14:50:22;;;;;;;;;;;;;;;6.89;100.00;100123.53;5052551;28;19999;-85
2023/10/03 14:52:48;;;;;;;;;;;;;;;6.88;100.00;100132.34;5051737;28;19920;-85
2023/10/03 14:55:16;;;;;;;;;;;;;;;6.83;100.00;100136.81;5034045;28;19974;-84
2023/10/03 14:57:41;;;;;;;;;;;;;;;6.90;100.00;100138.44;5051018;28;19917;-85
2023/10/03 15:00:07;;;;;;;;;;;;;;;6.88;100.00;100141.09;5052227;28;19928;-83
2023/10/03 15:02:32;;;;;;;;;;;;;;;6.90;100.00;100143.69;5052019;28;19920;-88
2023/10/03 15:04:58;;;;;;;;;;;;;;;6.85;100.00;100150.84;5033885;28;19939;-83
2023/10/03 15:07:24;;;;;;;;;;;;;;;6.98;100.00;100149.66;5033706;28;19923;-83
2023/10/03 15:09:51;;;;;;;;;;;;;;;6.87;100.00;100164.84;5052050;28;20376;-83
2023/10/03 15:12:16;;;;;;;;;;;;;;;6.91;100.00;100171.78;5032296;28;19923;-83
2023/10/03 15:14:43;;;;;;;;;;;;;;;6.87;100.00;100164.84;5051960;28;20279;-89
2023/10/03 15:17:10;;;;;;;;;;;;;;;6.80;100.00;100174.66;5032704;28;20059;-83
2023/10/03 15:19:39;;;;;;;;;;;;;;;6.83;100.00;100168.44;5051919;28;20355;-86
2023/10/03 15:22:05;;;;;;;;;;;;;;;6.83;100.00;100173.69;5033792;28;20386;-84
2023/10/03 15:24:34;;;;;;;;;;;;;;;6.85;100.00;100187.72;5033980;28;19945;-86
2023/10/03 15:27:00;;;;;;;;;;;;;;;6.93;100.00;100184.94;5049924;28;19921;-83
2023/10/03 15:29:25;;;;;;;;;;;;;;;6.82;100.00;100182.53;5050681;28;20295;-83
2023/10/03 15:31:50;;;;;;;;;;;;;;;6.86;100.00;100198.22;5052093;28;19916;-84
2023/10/03 15:34:26;;;;;;;;;;;;;;;6.90;100.00;100202.50;5051759;28;19917;-83
2023/10/03 15:36:51;;;;;;;;;;;;;;;6.92;100.00;100205.13;5051966;28;19912;-83
2023/10/03 15:39:17;;;;;;;;;;;;;;;6.88;100.00;100204.31;5051644;28;19924;-84
2023/10/03 15:41:42;;;;;;;;;;;;;;;6.94;100.00;100211.25;5050883;28;19921;-84
2023/10/03 15:44:08;;;;;;;;;;;;;;;7.00;100.00;100212.88;5033213;28;20387;-88
2023/10/03 15:46:34;;;;;;;;;;;;;;;7.00;100.00;100212.88;5051712;28;19991;-87
2023/10/03 15:48:59;;;;;;;;;;;;;;;7.04;100.00;100215.41;5051834;28;20427;-85
2023/10/03 15:51:25;;;;;;;;;;;;;;;6.85;100.00;100219.34;5051699;28;19956;-84
2023/10/03 15:53:50;;;;;;;;;;;;;;;6.89;100.00;100231.53;5033707;28;19947;-83
2023/10/03 15:56:17;;;;;;;;;;;;;;;6.90;100.00;100235.91;5051977;28;20330;-83
2023/10/03 15:58:49;;;;;;;;;;;;;;;7.00;100.00;100233.94;5049588;28;20279;-83
2023/10/03 16:01:15;;;;;;;;;;;;;;;6.81;100.00;100239.63;5051061;28;20003;-83
2023/10/03 16:03:42;;;;;;;;;;;;;;;6.96;100.00;100243.69;5051650;28;20027;-83
2023/10/03 16:06:09;;;;;;;;;;;;;;;6.95;100.00;100251.63;5051667;28;19925;-86
2023/10/03 16:08:36;;;;;;;;;;;;;;;6.81;100.00;100249.25;5051521;28;20301;-83
2023/10/03 16:11:01;;;;;;;;;;;;;;;6.84;100.00;100255.31;5033781;28;19923;-83
2023/10/03 16:14:16;;;;;;;;;;;;;;;6.87;100.00;100263.16;5049989;28;19925;-83
2023/10/03 16:16:42;;;;;;;;;;;;;;;6.87;100.00;100264.94;4989262;28;19918;-83
2023/10/03 16:19:07;;;;;;;;;;;;;;;6.89;100.00;100271.03;4989977;28;19969;-83
2023/10/03 16:21:33;;;;;;;;;;;;;;;6.84;100.00;100275.53;5022542;28;20002;-83
2023/10/03 16:23:59;;;;;;;;;;;;;;;6.79;100.00;100282.66;5051434;28;19956;-83
2023/10/03 16:26:24;;;;;;;;;;;;;;;6.83;100.00;100273.78;5050757;28;19980;-83
2023/10/03 16:28:50;;;;;;;;;;;;;;;6.81;100.00;100276.50;5050113;28;19975;-83
2023/10/03 16:31:15;;;;;;;;;;;;;;;6.79;100.00;100282.66;5051428;28;19921;-83
2023/10/03 16:33:40;;;;;;;;;;;;;;;6.66;100.00;100293.44;5051250;28;20376;-83
2023/10/03 16:36:05;;;;;;;;;;;;;;;6.72;100.00;100288.06;5051469;28;20004;-83
2023/10/03 16:38:31;;;;;;;;;;;;;;;6.76;100.00;100295.91;5051143;28;19963;-83
2023/10/03 16:44:46;;;;;;;;;;;;;;;6.64;100.00;100308.41;4992532;28;19929;-84
2023/10/03 16:47:15;;;;;;;;;;;;;;;6.72;100.00;100321.44;4924698;28;19919;-83
2023/10/03 16:49:40;;;;;;;;;;;;;;;6.83;100.00;100335.28;4992624;28;19932;-83
2023/10/03 16:52:05;;;;;;;;;;;;;;;6.75;100.00;100333.66;5017428;28;19917;-83
2023/10/03 16:57:46;;;;;;;;;;;;;;;6.77;100.00;100352.97;5095789;22;19984;-83
2023/10/03 17:00:15;;;;;;;;;;;;;;;6.74;100.00;100364.41;5024741;28;19979;-82
2023/10/03 17:02:48;;;;;;;;;;;;;;;6.85;100.00;100375.63;5024263;28;19921;-83
2023/10/03 17:05:15;;;;;;;;;;;;;;;6.82;100.00;100377.44;5024761;28;19924;-83
2023/10/03 17:07:41;;;;;;;;;;;;;;;6.75;100.00;100375.81;5014574;28;19925;-83
2023/10/03 17:10:07;;;;;;;;;;;;;;;6.81;100.00;100375.69;5014554;28;20406;-83
2023/10/03 17:12:33;;;;;;;;;;;;;;;6.69;100.00;100379.44;5023221;28;20338;-82
2023/10/03 17:14:59;;;;;;;;;;;;;;;6.70;100.00;100382.03;5024726;28;19917;-83
2023/10/03 17:17:24;;;;;;;;;;;;;;;6.72;100.00;100382.88;5014530;28;20071;-82
2023/10/03 17:19:49;;;;;;;;;;;;;;;6.76;100.00;100390.72;5024630;28;19921;-82
2023/10/03 17:22:16;;;;;;;;;;;;;;;6.81;100.00;100408.19;5031173;28;20008;-82
2023/10/03 17:24:43;;;;;;;;;;;;;;;6.69;100.00;100406.63;5024399;28;19921;-82
2023/10/03 17:27:08;;;;;;;;;;;;;;;6.84;100.00;100412.53;5022830;28;19917;-82
2023/10/03 17:29:33;;;;;;;;;;;;;;;6.75;100.00;100423.22;5023981;28;20004;-82
2023/10/03 17:32:01;;;;;;;;;;;;;;;6.67;100.00;100418.97;5024710;28;19979;-82
2023/10/03 17:34:26;;;;;;;;;;;;;;;6.70;100.00;100421.53;5024334;28;20327;-83
2023/10/03 17:36:51;;;;;;;;;;;;;;;6.70;100.00;100434.72;5014410;28;19921;-82
2023/10/03 17:39:17;;;;;;;;;;;;;;;6.88;100.00;100440.56;5023871;28;19923;-82
2023/10/03 17:41:43;;;;;;;;;;;;;;;6.81;100.00;100452.97;5022766;28;19921;-81
2023/10/03 17:44:08;;;;;;;;;;;;;;;6.70;100.00;100458.41;5024031;28;19923;-83
2023/10/03 17:46:34;;;;;;;;;;;;;;;6.68;100.00;100457.53;5023812;28;19928;-83
2023/10/03 17:48:59;;;;;;;;;;;;;;;6.72;100.00;100469.78;5023453;28;19917;-83
2023/10/03 17:51:28;;;;;;;;;;;;;;;6.79;100.00;100472.31;5013900;28;20293;-83
2023/10/03 17:53:53;;;;;;;;;;;;;;;6.74;100.00;100485.56;5012747;28;19924;-83
2023/10/03 17:56:19;;;;;;;;;;;;;;;6.81;100.00;100483.69;5022748;28;19976;-83
2023/10/03 17:58:44;;;;;;;;;;;;;;;6.70;100.00;100492.66;5012291;28;19918;-82
2023/10/03 18:01:19;;;;;;;;;;;;;;;6.72;100.00;100493.50;5023874;28;19917;-82
2023/10/03 18:03:44;;;;;;;;;;;;;;;6.81;100.00;100507.41;5029914;28;19985;-83
2023/10/03 18:06:10;;;;;;;;;;;;;;;6.80;100.00;100514.44;5030804;28;19929;-83
2023/10/03 18:08:35;;;;;;;;;;;;;;;6.69;100.00;100514.59;5013279;28;19921;-84
2023/10/03 18:11:01;;;;;;;;;;;;;;;6.66;100.00;100525.19;5013005;28;19925;-84
2023/10/03 18:13:26;;;;;;;;;;;;;;;6.67;100.00;100529.56;5011898;28;19925;-82
2023/10/03 18:15:52;;;;;;;;;;;;;;;6.62;100.00;100530.50;5022999;28;19976;-82
2023/10/03 18:18:18;;;;;;;;;;;;;;;6.54;100.00;100531.50;5023278;28;19917;-83
2023/10/03 18:20:43;;;;;;;;;;;;;;;6.75;100.00;100525.94;5023315;28;19928;-82
2023/10/03 18:23:08;;;;;;;;;;;;;;;6.66;100.00;100538.34;5023388;28;20004;-82
2023/10/03 18:25:33;;;;;;;;;;;;;;;6.66;100.00;100540.97;5023065;28;19956;-82
2023/10/03 18:27:59;;;;;;;;;;;;;;;6.60;100.00;100541.06;5021976;28;20438;-82
2023/10/03 18:30:24;;;;;;;;;;;;;;;6.66;100.00;100546.25;5013496;28;20368;-82
2023/10/03 18:32:50;;;;;;;;;;;;;;;6.63;100.00;100556.81;5022951;28;19917;-82
2023/10/03 18:35:15;;;;;;;;;;;;;;;6.65;100.00;100560.34;5022629;28;19964;-82
2023/10/03 18:37:41;;;;;;;;;;;;;;;6.60;100.00;100566.53;5022907;28;19917;-82
2023/10/03 18:40:07;;;;;;;;;;;;;;;6.52;100.00;100580.66;5023049;28;19971;-82
2023/10/03 18:42:35;;;;;;;;;;;;;;;6.60;100.00;100587.59;5011404;28;20012;-83
2023/10/03 18:45:00;;;;;;;;;;;;;;;6.61;100.00;100587.59;5013167;28;19917;-83
2023/10/03 18:47:25;;;;;;;;;;;;;;;6.54;100.00;100588.53;5023500;28;19921;-83
2023/10/03 18:49:51;;;;;;;;;;;;;;;6.51;100.00;100602.66;5022834;28;19917;-83
2023/10/03 18:52:16;;;;;;;;;;;;;;;6.47;100.00;100603.56;5023334;28;20400;-83
2023/10/03 18:54:41;;;;;;;;;;;;;;;6.55;100.00;100611.38;5022526;28;19921;-82
2023/10/03 18:57:06;;;;;;;;;;;;;;;6.49;100.00;100607.06;5016785;28;19971;-83
2023/10/03 18:59:52;;;;;;;;;;;;;;;6.50;100.00;100618.47;5021012;28;19917;-83
2023/10/03 19:02:17;;;;;;;;;;;;;;;6.56;100.00;100615.75;5021024;28;19925;-83
2023/10/03 19:04:42;;;;;;;;;;;;;;;6.50;100.00;100613.19;5022182;28;19971;-83
2023/10/03 19:07:08;;;;;;;;;;;;;;;6.50;100.00;100629.00;5022263;28;19928;-83
2023/10/03 19:09:34;;;;;;;;;;;;;;;6.48;100.00;100625.53;5023118;28;19918;-82
2023/10/03 19:12:01;;;;;;;;;;;;;;;6.48;100.00;100631.66;5043566;28;20215;-82
2023/10/03 19:14:26;;;;;;;;;;;;;;;6.49;100.00;100628.13;5044808;28;19921;-82
2023/10/03 19:16:53;;;;;;;;;;;;;;;6.46;100.00;100636.06;5022338;28;20324;-82
2023/10/03 19:19:18;;;;;;;;;;;;;;;6.53;100.00;100629.81;5021803;28;20372;-82
2023/10/03 19:21:44;;;;;;;;;;;;;;;6.47;100.00;100629.03;5022316;28;19917;-82
2023/10/03 19:24:09;;;;;;;;;;;;;;;6.50;100.00;100631.63;5022507;28;19975;-84
2023/10/03 19:26:37;;;;;;;;;;;;;;;6.47;100.00;100639.56;5022918;28;20249;-83
2023/10/03 19:29:03;;;;;;;;;;;;;;;6.49;100.00;100635.13;5020894;28;19971;-83
2023/10/03 19:31:28;;;;;;;;;;;;;;;6.46;100.00;100633.44;5022571;28;19921;-83
2023/10/03 19:33:54;;;;;;;;;;;;;;;6.51;100.00;100630.72;5021900;28;19949;-83
2023/10/03 19:36:20;;;;;;;;;;;;;;;6.44;100.00;100623.81;5020565;28;20011;-82
2023/10/03 19:38:45;;;;;;;;;;;;;;;6.44;100.00;100631.69;5020725;28;20004;-82
2023/10/03 19:41:12;;;;;;;;;;;;;;;6.54;100.00;100634.22;5021013;28;19953;-82
2023/10/03 19:43:39;;;;;;;;;;;;;;;6.49;100.00;100632.50;5021426;28;19921;-82
2023/10/03 19:46:04;;;;;;;;;;;;;;;6.45;100.00;100646.63;5045382;28;19917;-82
2023/10/03 19:48:31;;;;;;;;;;;;;;;6.47;100.00;100650.09;5021873;28;19990;-83
2023/10/03 19:50:56;;;;;;;;;;;;;;;6.56;100.00;100655.25;5022138;28;19972;-82
2023/10/03 19:53:21;;;;;;;;;;;;;;;6.45;100.00;100662.41;5022149;28;20384;-82
2023/10/03 19:55:47;;;;;;;;;;;;;;;6.47;100.00;100665.88;5045095;28;20058;-82
2023/10/03 19:58:12;;;;;;;;;;;;;;;6.52;100.00;100669.34;5020814;28;19928;-82
2023/10/03 20:00:37;;;;;;;;;;;;;;;6.45;100.00;100672.94;5021765;28;19917;-82
2023/10/03 20:03:04;;;;;;;;;;;;;;;6.47;100.00;100673.78;5021476;28;20308;-82
2023/10/03 20:05:29;;;;;;;;;;;;;;;6.50;100.00;100679.88;5022232;28;20356;-83
2023/10/03 20:07:54;;;;;;;;;;;;;;;6.45;100.00;100678.22;5022035;28;19921;-82
2023/10/03 20:10:19;;;;;;;;;;;;;;;6.57;100.00;100678.03;5021408;28;19924;-82
2023/10/03 20:12:46;;;;;;;;;;;;;;;6.43;100.00;100685.22;5020655;28;20273;-82
2023/10/03 20:15:12;;;;;;;;;;;;;;;6.40;100.00;100685.25;5021434;28;19956;-82
2023/10/03 20:17:38;;;;;;;;;;;;;;;6.49;100.00;100690.44;5025836;28;20487;-82
2023/10/03 20:20:10;;;;;;;;;;;;;;;6.41;100.00;100687.88;5025764;28;19928;-82
2023/10/03 20:22:35;;;;;;;;;;;;;;;6.44;100.00;100685.22;5025550;28;19917;-82
2023/10/03 20:25:01;;;;;;;;;;;;;;;6.48;100.00;100693.97;5025312;28;20287;-82
2023/10/03 20:27:34;;;;;;;;;;;;;;;6.39;100.00;100699.34;5024206;28;20372;-82
2023/10/03 20:29:59;;;;;;;;;;;;;;;6.40;100.00;100695.78;5023974;28;20008;-82
2023/10/03 20:32:24;;;;;;;;;;;;;;;6.40;100.00;100701.06;5025214;28;20416;-82
2023/10/03 20:34:50;;;;;;;;;;;;;;;6.40;100.00;100707.22;5031788;28;20459;-82
2023/10/03 20:37:17;;;;;;;;;;;;;;;6.39;100.00;100712.50;5025391;28;20398;-83
2023/10/03 20:39:42;;;;;;;;;;;;;;;6.45;100.00;100720.34;5015531;28;19917;-82
2023/10/03 20:42:07;;;;;;;;;;;;;;;6.45;100.00;100725.59;5024167;28;20279;-82
2023/10/03 20:44:32;;;;;;;;;;;;;;;6.37;100.00;100725.69;5031400;28;19953;-82
2023/10/03 20:47:01;;;;;;;;;;;;;;;6.35;100.00;100730.06;5014903;28;19921;-82
2023/10/03 20:49:26;;;;;;;;;;;;;;;6.33;100.00;100730.13;5025066;28;19987;-82
2023/10/03 20:51:52;;;;;;;;;;;;;;;6.31;100.00;100733.63;5014864;28;19917;-82
2023/10/03 20:54:17;;;;;;;;;;;;;;;6.45;100.00;100744.88;5024822;28;19917;-82
2023/10/03 20:56:42;;;;;;;;;;;;;;;6.41;100.00;100744.94;5038457;28;19921;-82
2023/10/03 20:59:08;;;;;;;;;;;;;;;6.36;100.00;100748.47;5047214;28;19925;-82
2023/10/03 21:01:34;;;;;;;;;;;;;;;6.41;100.00;100750.19;5024261;28;19968;-82
2023/10/03 21:03:59;;;;;;;;;;;;;;;6.47;100.00;100753.63;5024375;28;19976;-82
2023/10/03 21:06:24;;;;;;;;;;;;;;;6.31;100.00;100755.56;5025133;28;19917;-82
2023/10/03 21:08:49;;;;;;;;;;;;;;;6.32;100.00;100759.94;5040022;28;20296;-82
2023/10/03 21:11:16;;;;;;;;;;;;;;;6.36;100.00;100756.38;5022705;28;20087;-82
2023/10/03 21:13:42;;;;;;;;;;;;;;;6.47;100.00;100752.78;5023049;28;19918;-82
2023/10/03 21:16:08;;;;;;;;;;;;;;;6.39;100.00;100755.47;5024522;28;19921;-82
2023/10/03 21:18:33;;;;;;;;;;;;;;;6.35;100.00;100753.75;5023017;28;19941;-82
2023/10/03 21:20:58;;;;;;;;;;;;;;;6.33;100.00;100771.34;5047322;28;19917;-82
2023/10/03 21:23:24;;;;;;;;;;;;;;;6.35;100.00;100767.81;5022869;28;20006;-83
2023/10/03 21:25:49;;;;;;;;;;;;;;;6.39;100.00;100767.78;5022900;28;19917;-82
2023/10/03 21:28:14;;;;;;;;;;;;;;;6.31;100.00;100773.97;5023324;28;20330;-82
2023/10/03 21:30:39;;;;;;;;;;;;;;;6.33;100.00;100776.59;5024443;28;20442;-82
2023/10/03 21:33:05;;;;;;;;;;;;;;;6.47;100.00;100776.47;5024223;28;19928;-82
2023/10/03 21:35:34;;;;;;;;;;;;;;;6.51;100.00;100772.91;5022547;28;19921;-82
2023/10/03 21:38:00;;;;;;;;;;;;;;;6.67;100.00;100778.88;5023944;28;19999;-82
2023/10/03 21:40:25;;;;;;;;;;;;;;;6.49;100.00;100780.84;5023702;28;20008;-82
2023/10/03 21:42:50;;;;;;;;;;;;;;;6.38;100.00;100785.31;5022464;28;19917;-82
2023/10/03 21:45:16;;;;;;;;;;;;;;;6.51;100.00;100789.59;5048063;28;19944;-82
2023/10/03 21:47:41;;;;;;;;;;;;;;;6.47;100.00;100787.00;5023789;28;19959;-82
2023/10/03 21:50:06;;;;;;;;;;;;;;;6.60;100.00;100782.47;5024126;28;19956;-82
2023/10/03 21:52:32;;;;;;;;;;;;;;;6.46;100.00;100785.25;5024035;28;19925;-82
2023/10/03 21:54:57;;;;;;;;;;;;;;;6.50;100.00;100786.97;5021584;28;20370;-82
2023/10/03 21:57:22;;;;;;;;;;;;;;;6.71;100.00;100785.88;5029732;28;20464;-82
2023/10/03 21:59:48;;;;;;;;;;;;;;;6.64;100.00;100784.22;5015174;28;19940;-82
2023/10/03 22:02:14;;;;;;;;;;;;;;;6.57;100.00;100777.25;5033454;28;19927;-82
2023/10/03 22:04:39;;;;;;;;;;;;;;;6.60;100.00;100777.22;5033564;28;20418;-82
2023/10/03 22:07:05;;;;;;;;;;;;;;;6.58;100.00;100785.13;5033387;28;19917;-81
2023/10/03 22:09:30;;;;;;;;;;;;;;;6.53;100.00;100786.94;5015615;28;19925;-82
2023/10/03 22:11:56;;;;;;;;;;;;;;;6.50;100.00;100784.34;5032073;28;19921;-82
2023/10/03 22:14:21;;;;;;;;;;;;;;;6.54;100.00;100786.94;5032809;28;19925;-82
2023/10/03 22:16:46;;;;;;;;;;;;;;;6.59;100.00;100786.00;5015250;28;19971;-82
2023/10/03 22:19:13;;;;;;;;;;;;;;;6.58;100.00;100795.66;5033049;28;19921;-82
2023/10/03 22:21:38;;;;;;;;;;;;;;;6.50;100.00;100786.97;5032575;28;19936;-82
2023/10/03 22:24:04;;;;;;;;;;;;;;;6.53;100.00;100792.22;5033018;28;20324;-81
2023/10/03 22:26:29;;;;;;;;;;;;;;;6.55;100.00;100790.44;5015210;28;19924;-82
2023/10/03 22:28:55;;;;;;;;;;;;;;;6.52;100.00;100790.47;5031658;28;19968;-82
2023/10/03 22:31:20;;;;;;;;;;;;;;;6.52;100.00;100785.19;5033020;28;20356;-82
2023/10/03 22:33:47;;;;;;;;;;;;;;;6.41;100.00;100792.31;5015146;28;20261;-82
2023/10/03 22:36:13;;;;;;;;;;;;;;;6.47;100.00;100792.28;5032914;28;20020;-82
2023/10/03 22:38:40;;;;;;;;;;;;;;;6.34;100.00;100792.38;5032323;28;20407;-82
2023/10/03 22:41:06;;;;;;;;;;;;;;;6.08;100.00;100807.53;5026882;28;19917;-82
2023/10/03 22:43:31;;;;;;;;;;;;;;;6.17;100.00;100800.44;5013665;28;19932;-82
2023/10/03 22:45:56;;;;;;;;;;;;;;;6.20;100.00;100802.16;5032528;28;19925;-82
2023/10/03 22:48:22;;;;;;;;;;;;;;;6.22;100.00;100797.75;5032693;28;19924;-82
2023/10/03 22:50:47;;;;;;;;;;;;;;;6.16;100.00;100798.69;5032601;28;19961;-82
2023/10/03 22:53:12;;;;;;;;;;;;;;;6.21;100.00;100805.66;5032665;28;19925;-89
